sensor_id;sensor_type;location;lat;lon;timestamp;temperature;humidity
802;DHT22;383;48.766;9.270;2023-05-21T00:00:16;17.20;90.10
802;DHT22;383;48.766;9.270;2023-05-21T00:02:45;17.10;90.40
802;DHT22;383;48.766;9.270;2023-05-21T00:05:12;17.10;90.60
802;DHT22;383;48.766;9.270;2023-05-21T00:07:39;17.10;90.50
802;DHT22;383;48.766;9.270;2023-05-21T00:10:07;17.10;90.70
802;DHT22;383;48.766;9.270;2023-05-21T00:12:35;17.20;90.60
802;DHT22;383;48.766;9.270;2023-05-21T00:15:02;17.20;90.30
802;DHT22;383;48.766;9.270;2023-05-21T00:17:29;17.20;90.10
802;DHT22;383;48.766;9.270;2023-05-21T00:19:55;17.20;90.10
802;DHT22;383;48.766;9.270;2023-05-21T00:22:22;17.20;90.20
802;DHT22;383;48.766;9.270;2023-05-21T00:24:49;17.10;90.40
802;DHT22;383;48.766;9.270;2023-05-21T00:27:16;17.10;90.70
802;DHT22;383;48.766;9.270;2023-05-21T00:29:44;16.90;90.90
802;DHT22;383;48.766;9.270;2023-05-21T00:32:10;16.90;91.10
802;DHT22;383;48.766;9.270;2023-05-21T00:34:37;17.00;90.90
802;DHT22;383;48.766;9.270;2023-05-21T00:37:04;16.90;90.90
802;DHT22;383;48.766;9.270;2023-05-21T00:39:30;16.90;91.00
802;DHT22;383;48.766;9.270;2023-05-21T00:41:57;16.90;91.20
802;DHT22;383;48.766;9.270;2023-05-21T00:44:24;16.80;91.30
802;DHT22;383;48.766;9.270;2023-05-21T00:46:52;16.80;91.40
802;DHT22;383;48.766;9.270;2023-05-21T00:49:20;16.80;91.80
802;DHT22;383;48.766;9.270;2023-05-21T00:51:49;16.80;91.60
802;DHT22;383;48.766;9.270;2023-05-21T00:54:16;16.80;91.80
802;DHT22;383;48.766;9.270;2023-05-21T00:56:43;16.70;91.70
802;DHT22;383;48.766;9.270;2023-05-21T00:59:09;16.60;92.10
802;DHT22;383;48.766;9.270;2023-05-21T01:01:36;16.60;92.50
802;DHT22;383;48.766;9.270;2023-05-21T01:04:04;16.60;92.30
802;DHT22;383;48.766;9.270;2023-05-21T01:06:31;16.60;92.40
802;DHT22;383;48.766;9.270;2023-05-21T01:09:00;16.60;92.50
802;DHT22;383;48.766;9.270;2023-05-21T01:11:36;16.60;92.30
802;DHT22;383;48.766;9.270;2023-05-21T01:14:03;16.60;92.80
802;DHT22;383;48.766;9.270;2023-05-21T01:16:35;16.70;92.60
802;DHT22;383;48.766;9.270;2023-05-21T01:19:05;16.60;92.70
802;DHT22;383;48.766;9.270;2023-05-21T01:21:34;16.60;92.80
802;DHT22;383;48.766;9.270;2023-05-21T01:24:03;16.70;92.50
802;DHT22;383;48.766;9.270;2023-05-21T01:26:32;16.70;92.30
802;DHT22;383;48.766;9.270;2023-05-21T01:29:03;16.70;92.40
802;DHT22;383;48.766;9.270;2023-05-21T01:31:35;16.60;92.50
802;DHT22;383;48.766;9.270;2023-05-21T01:34:04;16.60;92.70
802;DHT22;383;48.766;9.270;2023-05-21T01:36:39;16.60;93.00
802;DHT22;383;48.766;9.270;2023-05-21T01:39:11;16.60;93.00
802;DHT22;383;48.766;9.270;2023-05-21T01:41:43;16.60;92.90
802;DHT22;383;48.766;9.270;2023-05-21T01:44:11;16.50;93.20
802;DHT22;383;48.766;9.270;2023-05-21T01:46:39;16.50;93.50
802;DHT22;383;48.766;9.270;2023-05-21T01:49:06;16.50;93.30
802;DHT22;383;48.766;9.270;2023-05-21T01:51:34;16.50;93.40
802;DHT22;383;48.766;9.270;2023-05-21T01:54:01;16.50;93.60
802;DHT22;383;48.766;9.270;2023-05-21T01:56:29;16.40;93.50
802;DHT22;383;48.766;9.270;2023-05-21T01:58:58;16.40;93.80
802;DHT22;383;48.766;9.270;2023-05-21T02:01:26;16.40;93.90
802;DHT22;383;48.766;9.270;2023-05-21T02:03:54;16.30;94.00
802;DHT22;383;48.766;9.270;2023-05-21T02:06:21;16.30;94.00
802;DHT22;383;48.766;9.270;2023-05-21T02:08:48;16.20;94.20
802;DHT22;383;48.766;9.270;2023-05-21T02:11:15;16.20;94.30
802;DHT22;383;48.766;9.270;2023-05-21T02:13:43;16.20;94.30
802;DHT22;383;48.766;9.270;2023-05-21T02:16:11;16.20;94.30
802;DHT22;383;48.766;9.270;2023-05-21T02:18:40;16.20;94.50
802;DHT22;383;48.766;9.270;2023-05-21T02:21:08;16.10;94.50
802;DHT22;383;48.766;9.270;2023-05-21T02:23:35;16.10;95.00
802;DHT22;383;48.766;9.270;2023-05-21T02:26:03;16.00;95.00
802;DHT22;383;48.766;9.270;2023-05-21T02:28:29;16.00;95.00
802;DHT22;383;48.766;9.270;2023-05-21T02:30:58;16.00;95.20
802;DHT22;383;48.766;9.270;2023-05-21T02:33:25;16.00;95.30
802;DHT22;383;48.766;9.270;2023-05-21T02:35:52;16.00;95.50
802;DHT22;383;48.766;9.270;2023-05-21T02:38:18;16.00;95.40
802;DHT22;383;48.766;9.270;2023-05-21T02:40:47;16.00;95.50
802;DHT22;383;48.766;9.270;2023-05-21T02:43:14;16.00;95.70
802;DHT22;383;48.766;9.270;2023-05-21T02:45:41;16.00;95.70
802;DHT22;383;48.766;9.270;2023-05-21T02:48:09;16.00;95.60
802;DHT22;383;48.766;9.270;2023-05-21T02:50:35;16.00;95.50
802;DHT22;383;48.766;9.270;2023-05-21T02:53:02;16.00;95.70
802;DHT22;383;48.766;9.270;2023-05-21T02:55:29;16.00;95.60
802;DHT22;383;48.766;9.270;2023-05-21T02:57:55;16.00;95.60
802;DHT22;383;48.766;9.270;2023-05-21T03:00:22;15.90;95.60
802;DHT22;383;48.766;9.270;2023-05-21T03:02:49;15.90;95.70
802;DHT22;383;48.766;9.270;2023-05-21T03:05:17;15.90;95.80
802;DHT22;383;48.766;9.270;2023-05-21T03:07:43;15.90;95.70
802;DHT22;383;48.766;9.270;2023-05-21T03:10:10;15.90;95.70
802;DHT22;383;48.766;9.270;2023-05-21T03:12:37;15.80;95.80
802;DHT22;383;48.766;9.270;2023-05-21T03:15:04;15.80;96.00
802;DHT22;383;48.766;9.270;2023-05-21T03:17:31;15.80;95.70
802;DHT22;383;48.766;9.270;2023-05-21T03:19:58;15.80;95.90
802;DHT22;383;48.766;9.270;2023-05-21T03:22:26;15.80;95.90
802;DHT22;383;48.766;9.270;2023-05-21T03:24:52;15.80;95.90
802;DHT22;383;48.766;9.270;2023-05-21T03:27:19;15.70;96.00
802;DHT22;383;48.766;9.270;2023-05-21T03:29:46;15.60;96.20
802;DHT22;383;48.766;9.270;2023-05-21T03:32:13;15.60;96.30
802;DHT22;383;48.766;9.270;2023-05-21T03:34:39;15.60;96.50
802;DHT22;383;48.766;9.270;2023-05-21T03:37:06;15.60;96.40
802;DHT22;383;48.766;9.270;2023-05-21T03:39:34;15.50;96.80
802;DHT22;383;48.766;9.270;2023-05-21T03:42:01;15.50;96.90
802;DHT22;383;48.766;9.270;2023-05-21T03:44:27;15.60;96.70
802;DHT22;383;48.766;9.270;2023-05-21T03:46:56;15.60;96.50
802;DHT22;383;48.766;9.270;2023-05-21T03:49:23;15.50;96.70
802;DHT22;383;48.766;9.270;2023-05-21T03:51:50;15.60;96.40
802;DHT22;383;48.766;9.270;2023-05-21T03:54:17;15.60;96.20
802;DHT22;383;48.766;9.270;2023-05-21T03:56:45;15.60;96.10
802;DHT22;383;48.766;9.270;2023-05-21T03:59:11;15.60;96.00
802;DHT22;383;48.766;9.270;2023-05-21T04:01:38;15.40;96.50
802;DHT22;383;48.766;9.270;2023-05-21T04:04:05;15.40;96.90
802;DHT22;383;48.766;9.270;2023-05-21T04:06:31;15.40;96.90
802;DHT22;383;48.766;9.270;2023-05-21T04:08:58;15.50;96.60
802;DHT22;383;48.766;9.270;2023-05-21T04:11:25;15.40;96.90
802;DHT22;383;48.766;9.270;2023-05-21T04:13:53;15.40;96.80
802;DHT22;383;48.766;9.270;2023-05-21T04:16:20;15.40;97.00
802;DHT22;383;48.766;9.270;2023-05-21T04:18:47;15.40;97.10
802;DHT22;383;48.766;9.270;2023-05-21T04:21:13;15.40;97.20
802;DHT22;383;48.766;9.270;2023-05-21T04:23:40;15.40;97.30
802;DHT22;383;48.766;9.270;2023-05-21T04:26:07;15.50;97.50
802;DHT22;383;48.766;9.270;2023-05-21T04:28:34;15.50;97.10
802;DHT22;383;48.766;9.270;2023-05-21T04:31:02;15.50;97.20
802;DHT22;383;48.766;9.270;2023-05-21T04:33:30;15.60;96.90
802;DHT22;383;48.766;9.270;2023-05-21T04:35:56;15.60;96.70
802;DHT22;383;48.766;9.270;2023-05-21T04:38:23;15.60;96.60
802;DHT22;383;48.766;9.270;2023-05-21T04:40:50;15.60;96.70
802;DHT22;383;48.766;9.270;2023-05-21T04:43:17;15.80;96.30
802;DHT22;383;48.766;9.270;2023-05-21T04:45:49;15.80;96.10
802;DHT22;383;48.766;9.270;2023-05-21T04:48:18;15.80;96.10
802;DHT22;383;48.766;9.270;2023-05-21T04:50:45;15.80;96.40
802;DHT22;383;48.766;9.270;2023-05-21T04:53:11;15.90;96.10
802;DHT22;383;48.766;9.270;2023-05-21T04:55:38;15.90;96.00
802;DHT22;383;48.766;9.270;2023-05-21T04:58:06;16.00;95.90
802;DHT22;383;48.766;9.270;2023-05-21T05:00:35;16.00;96.20
802;DHT22;383;48.766;9.270;2023-05-21T05:03:02;16.00;96.40
802;DHT22;383;48.766;9.270;2023-05-21T05:05:30;16.00;96.30
802;DHT22;383;48.766;9.270;2023-05-21T05:07:57;16.10;96.10
802;DHT22;383;48.766;9.270;2023-05-21T05:10:23;16.20;95.70
802;DHT22;383;48.766;9.270;2023-05-21T05:12:50;16.30;95.60
802;DHT22;383;48.766;9.270;2023-05-21T05:15:17;16.30;95.50
802;DHT22;383;48.766;9.270;2023-05-21T05:17:43;16.40;95.50
802;DHT22;383;48.766;9.270;2023-05-21T05:20:12;16.40;95.20
802;DHT22;383;48.766;9.270;2023-05-21T05:22:40;16.50;95.10
802;DHT22;383;48.766;9.270;2023-05-21T05:25:07;16.50;94.90
802;DHT22;383;48.766;9.270;2023-05-21T05:27:34;16.60;95.00
802;DHT22;383;48.766;9.270;2023-05-21T05:30:01;16.60;95.10
802;DHT22;383;48.766;9.270;2023-05-21T05:32:28;16.70;94.90
802;DHT22;383;48.766;9.270;2023-05-21T05:34:54;16.80;94.20
802;DHT22;383;48.766;9.270;2023-05-21T05:37:21;17.00;93.70
802;DHT22;383;48.766;9.270;2023-05-21T05:39:49;17.10;93.30
802;DHT22;383;48.766;9.270;2023-05-21T05:42:16;17.20;93.10
802;DHT22;383;48.766;9.270;2023-05-21T05:44:42;17.20;93.00
802;DHT22;383;48.766;9.270;2023-05-21T05:47:09;17.20;93.20
802;DHT22;383;48.766;9.270;2023-05-21T05:49:36;17.30;92.90
802;DHT22;383;48.766;9.270;2023-05-21T05:52:03;17.40;92.40
802;DHT22;383;48.766;9.270;2023-05-21T05:54:30;17.50;92.30
802;DHT22;383;48.766;9.270;2023-05-21T05:56:58;17.50;91.80
802;DHT22;383;48.766;9.270;2023-05-21T05:59:25;17.70;91.20
802;DHT22;383;48.766;9.270;2023-05-21T06:01:51;17.70;91.20
802;DHT22;383;48.766;9.270;2023-05-21T06:04:18;17.80;91.00
802;DHT22;383;48.766;9.270;2023-05-21T06:06:45;17.90;90.60
802;DHT22;383;48.766;9.270;2023-05-21T06:09:12;18.00;90.30
802;DHT22;383;48.766;9.270;2023-05-21T06:11:39;18.00;90.60
802;DHT22;383;48.766;9.270;2023-05-21T06:14:07;18.00;90.40
802;DHT22;383;48.766;9.270;2023-05-21T06:16:34;18.10;90.20
802;DHT22;383;48.766;9.270;2023-05-21T06:19:01;18.20;90.40
802;DHT22;383;48.766;9.270;2023-05-21T06:21:28;18.30;89.30
802;DHT22;383;48.766;9.270;2023-05-21T06:23:55;18.40;88.60
802;DHT22;383;48.766;9.270;2023-05-21T06:26:25;18.50;87.70
802;DHT22;383;48.766;9.270;2023-05-21T06:28:51;18.50;87.60
802;DHT22;383;48.766;9.270;2023-05-21T06:31:19;18.50;88.00
802;DHT22;383;48.766;9.270;2023-05-21T06:33:47;18.70;87.30
802;DHT22;383;48.766;9.270;2023-05-21T06:36:14;18.70;86.30
802;DHT22;383;48.766;9.270;2023-05-21T06:38:41;18.70;86.10
802;DHT22;383;48.766;9.270;2023-05-21T06:41:08;18.80;85.90
802;DHT22;383;48.766;9.270;2023-05-21T06:43:35;18.90;85.10
802;DHT22;383;48.766;9.270;2023-05-21T06:46:02;18.80;85.60
802;DHT22;383;48.766;9.270;2023-05-21T06:48:30;18.80;85.90
802;DHT22;383;48.766;9.270;2023-05-21T06:50:56;18.90;85.70
802;DHT22;383;48.766;9.270;2023-05-21T06:53:23;19.00;84.50
802;DHT22;383;48.766;9.270;2023-05-21T06:55:50;19.00;85.20
802;DHT22;383;48.766;9.270;2023-05-21T06:58:18;19.10;84.90
802;DHT22;383;48.766;9.270;2023-05-21T07:00:46;19.10;84.80
802;DHT22;383;48.766;9.270;2023-05-21T07:03:12;19.20;85.50
802;DHT22;383;48.766;9.270;2023-05-21T07:05:40;19.30;84.10
802;DHT22;383;48.766;9.270;2023-05-21T07:08:07;19.30;84.50
802;DHT22;383;48.766;9.270;2023-05-21T07:10:34;19.40;83.60
802;DHT22;383;48.766;9.270;2023-05-21T07:13:00;19.40;83.90
802;DHT22;383;48.766;9.270;2023-05-21T07:15:27;19.40;83.90
802;DHT22;383;48.766;9.270;2023-05-21T07:17:54;19.60;83.10
802;DHT22;383;48.766;9.270;2023-05-21T07:20:21;19.60;82.60
802;DHT22;383;48.766;9.270;2023-05-21T07:22:49;19.60;83.60
802;DHT22;383;48.766;9.270;2023-05-21T07:25:15;19.70;83.10
802;DHT22;383;48.766;9.270;2023-05-21T07:27:42;19.80;83.10
802;DHT22;383;48.766;9.270;2023-05-21T07:30:09;19.80;83.10
802;DHT22;383;48.766;9.270;2023-05-21T07:32:36;19.80;83.20
802;DHT22;383;48.766;9.270;2023-05-21T07:35:04;19.90;83.40
802;DHT22;383;48.766;9.270;2023-05-21T07:37:31;19.90;83.50
802;DHT22;383;48.766;9.270;2023-05-21T07:39:59;20.10;82.00
802;DHT22;383;48.766;9.270;2023-05-21T07:42:25;20.30;80.40
802;DHT22;383;48.766;9.270;2023-05-21T07:44:52;20.40;80.30
802;DHT22;383;48.766;9.270;2023-05-21T07:47:19;20.50;79.70
802;DHT22;383;48.766;9.270;2023-05-21T07:49:47;20.60;79.30
802;DHT22;383;48.766;9.270;2023-05-21T07:52:14;20.70;78.60
802;DHT22;383;48.766;9.270;2023-05-21T07:54:41;20.70;77.90
802;DHT22;383;48.766;9.270;2023-05-21T07:57:09;20.80;78.20
802;DHT22;383;48.766;9.270;2023-05-21T07:59:36;20.90;79.30
802;DHT22;383;48.766;9.270;2023-05-21T08:02:02;21.10;76.70
802;DHT22;383;48.766;9.270;2023-05-21T08:04:29;21.30;76.20
802;DHT22;383;48.766;9.270;2023-05-21T08:06:56;21.50;76.30
802;DHT22;383;48.766;9.270;2023-05-21T08:09:23;21.60;75.40
802;DHT22;383;48.766;9.270;2023-05-21T08:11:49;21.70;74.80
802;DHT22;383;48.766;9.270;2023-05-21T08:14:18;21.80;77.30
802;DHT22;383;48.766;9.270;2023-05-21T08:16:45;22.00;73.40
802;DHT22;383;48.766;9.270;2023-05-21T08:19:12;22.00;72.80
802;DHT22;383;48.766;9.270;2023-05-21T08:21:38;21.90;74.60
802;DHT22;383;48.766;9.270;2023-05-21T08:24:05;22.00;74.50
802;DHT22;383;48.766;9.270;2023-05-21T08:26:32;22.20;73.40
802;DHT22;383;48.766;9.270;2023-05-21T08:29:00;22.30;73.60
802;DHT22;383;48.766;9.270;2023-05-21T08:31:28;22.50;70.50
802;DHT22;383;48.766;9.270;2023-05-21T08:33:54;22.50;72.00
802;DHT22;383;48.766;9.270;2023-05-21T08:36:21;22.50;72.10
802;DHT22;383;48.766;9.270;2023-05-21T08:38:48;22.50;72.10
802;DHT22;383;48.766;9.270;2023-05-21T08:41:15;22.60;71.30
802;DHT22;383;48.766;9.270;2023-05-21T08:43:45;22.80;69.60
802;DHT22;383;48.766;9.270;2023-05-21T08:46:13;22.60;70.00
802;DHT22;383;48.766;9.270;2023-05-21T08:48:42;22.70;70.10
802;DHT22;383;48.766;9.270;2023-05-21T08:51:09;22.70;69.50
802;DHT22;383;48.766;9.270;2023-05-21T08:53:36;22.70;69.60
802;DHT22;383;48.766;9.270;2023-05-21T08:56:03;22.80;71.10
802;DHT22;383;48.766;9.270;2023-05-21T08:58:31;22.90;69.30
802;DHT22;383;48.766;9.270;2023-05-21T09:00:59;22.80;68.20
802;DHT22;383;48.766;9.270;2023-05-21T09:03:26;22.90;67.60
802;DHT22;383;48.766;9.270;2023-05-21T09:05:55;22.80;66.30
802;DHT22;383;48.766;9.270;2023-05-21T09:08:28;22.80;66.40
802;DHT22;383;48.766;9.270;2023-05-21T09:10:59;22.80;64.90
802;DHT22;383;48.766;9.270;2023-05-21T09:13:27;22.80;66.20
802;DHT22;383;48.766;9.270;2023-05-21T09:15:54;22.80;65.00
802;DHT22;383;48.766;9.270;2023-05-21T09:18:21;22.80;66.00
802;DHT22;383;48.766;9.270;2023-05-21T09:20:48;22.80;65.10
802;DHT22;383;48.766;9.270;2023-05-21T09:23:17;22.70;65.50
802;DHT22;383;48.766;9.270;2023-05-21T09:25:45;22.80;66.70
802;DHT22;383;48.766;9.270;2023-05-21T09:28:13;22.90;65.00
802;DHT22;383;48.766;9.270;2023-05-21T09:30:43;23.00;64.60
802;DHT22;383;48.766;9.270;2023-05-21T09:33:11;23.00;65.90
802;DHT22;383;48.766;9.270;2023-05-21T09:35:43;23.20;64.20
802;DHT22;383;48.766;9.270;2023-05-21T09:38:10;23.30;63.70
802;DHT22;383;48.766;9.270;2023-05-21T09:40:42;23.40;64.70
802;DHT22;383;48.766;9.270;2023-05-21T09:43:12;23.60;63.00
802;DHT22;383;48.766;9.270;2023-05-21T09:45:49;23.70;63.40
802;DHT22;383;48.766;9.270;2023-05-21T09:48:16;23.90;62.70
802;DHT22;383;48.766;9.270;2023-05-21T09:50:42;24.00;61.30
802;DHT22;383;48.766;9.270;2023-05-21T09:53:11;24.10;61.50
802;DHT22;383;48.766;9.270;2023-05-21T09:55:40;24.20;61.40
802;DHT22;383;48.766;9.270;2023-05-21T09:58:07;24.30;60.50
802;DHT22;383;48.766;9.270;2023-05-21T10:00:35;24.40;63.30
802;DHT22;383;48.766;9.270;2023-05-21T10:03:07;24.60;60.80
802;DHT22;383;48.766;9.270;2023-05-21T10:05:35;24.80;58.20
802;DHT22;383;48.766;9.270;2023-05-21T10:08:03;24.90;59.30
802;DHT22;383;48.766;9.270;2023-05-21T10:10:32;25.00;59.30
802;DHT22;383;48.766;9.270;2023-05-21T10:13:03;25.10;58.60
802;DHT22;383;48.766;9.270;2023-05-21T10:15:36;25.30;58.00
802;DHT22;383;48.766;9.270;2023-05-21T10:18:05;25.40;57.60
802;DHT22;383;48.766;9.270;2023-05-21T10:20:32;25.50;57.40
802;DHT22;383;48.766;9.270;2023-05-21T10:23:01;25.50;58.70
802;DHT22;383;48.766;9.270;2023-05-21T10:25:30;25.70;57.10
802;DHT22;383;48.766;9.270;2023-05-21T10:27:57;25.80;57.10
802;DHT22;383;48.766;9.270;2023-05-21T10:30:25;25.80;56.90
802;DHT22;383;48.766;9.270;2023-05-21T10:32:54;25.70;56.10
802;DHT22;383;48.766;9.270;2023-05-21T10:35:22;25.70;55.90
802;DHT22;383;48.766;9.270;2023-05-21T10:37:50;25.80;55.60
802;DHT22;383;48.766;9.270;2023-05-21T10:40:17;25.80;56.60
802;DHT22;383;48.766;9.270;2023-05-21T10:43:20;25.80;54.60
802;DHT22;383;48.766;9.270;2023-05-21T10:46:06;25.90;56.70
802;DHT22;383;48.766;9.270;2023-05-21T10:48:49;26.10;55.70
802;DHT22;383;48.766;9.270;2023-05-21T10:51:22;26.20;56.00
802;DHT22;383;48.766;9.270;2023-05-21T10:56:47;26.40;58.60
802;DHT22;383;48.766;9.270;2023-05-21T10:59:16;26.60;55.20
802;DHT22;383;48.766;9.270;2023-05-21T11:01:49;26.70;54.00
802;DHT22;383;48.766;9.270;2023-05-21T11:04:21;26.60;54.90
802;DHT22;383;48.766;9.270;2023-05-21T11:06:50;26.50;54.00
802;DHT22;383;48.766;9.270;2023-05-21T11:09:16;26.50;54.00
802;DHT22;383;48.766;9.270;2023-05-21T11:11:45;26.40;54.70
802;DHT22;383;48.766;9.270;2023-05-21T11:14:29;26.40;54.30
802;DHT22;383;48.766;9.270;2023-05-21T11:16:58;26.40;54.60
802;DHT22;383;48.766;9.270;2023-05-21T11:19:35;26.20;54.90
802;DHT22;383;48.766;9.270;2023-05-21T11:22:19;26.00;56.50
802;DHT22;383;48.766;9.270;2023-05-21T11:24:46;26.10;56.10
802;DHT22;383;48.766;9.270;2023-05-21T11:27:29;26.10;56.40
802;DHT22;383;48.766;9.270;2023-05-21T11:29:56;26.20;56.40
802;DHT22;383;48.766;9.270;2023-05-21T11:32:24;26.20;56.50
802;DHT22;383;48.766;9.270;2023-05-21T11:34:51;26.20;55.40
802;DHT22;383;48.766;9.270;2023-05-21T11:37:28;26.20;55.90
802;DHT22;383;48.766;9.270;2023-05-21T11:39:57;26.20;55.40
802;DHT22;383;48.766;9.270;2023-05-21T11:42:31;26.00;57.00
802;DHT22;383;48.766;9.270;2023-05-21T11:44:58;26.20;54.50
802;DHT22;383;48.766;9.270;2023-05-21T11:47:27;26.30;54.60
802;DHT22;383;48.766;9.270;2023-05-21T11:49:55;26.50;52.60
802;DHT22;383;48.766;9.270;2023-05-21T11:52:22;26.70;51.80
802;DHT22;383;48.766;9.270;2023-05-21T11:54:51;26.70;51.90
802;DHT22;383;48.766;9.270;2023-05-21T11:57:20;26.80;51.80
802;DHT22;383;48.766;9.270;2023-05-21T11:59:48;26.80;52.00
802;DHT22;383;48.766;9.270;2023-05-21T12:02:17;26.80;50.90
802;DHT22;383;48.766;9.270;2023-05-21T12:04:46;26.90;50.40
802;DHT22;383;48.766;9.270;2023-05-21T12:07:14;27.00;49.00
802;DHT22;383;48.766;9.270;2023-05-21T12:09:42;27.20;49.80
802;DHT22;383;48.766;9.270;2023-05-21T12:12:10;27.20;47.80
802;DHT22;383;48.766;9.270;2023-05-21T12:14:38;27.30;47.80
802;DHT22;383;48.766;9.270;2023-05-21T12:17:05;27.30;47.40
802;DHT22;383;48.766;9.270;2023-05-21T12:19:32;27.30;47.10
802;DHT22;383;48.766;9.270;2023-05-21T12:22:02;27.00;47.60
802;DHT22;383;48.766;9.270;2023-05-21T12:24:29;27.00;50.20
802;DHT22;383;48.766;9.270;2023-05-21T12:26:56;27.10;48.30
802;DHT22;383;48.766;9.270;2023-05-21T12:29:26;27.20;46.40
802;DHT22;383;48.766;9.270;2023-05-21T12:31:53;27.40;45.70
802;DHT22;383;48.766;9.270;2023-05-21T12:34:37;27.40;45.90
802;DHT22;383;48.766;9.270;2023-05-21T12:37:06;27.30;48.70
802;DHT22;383;48.766;9.270;2023-05-21T12:39:36;27.30;47.30
802;DHT22;383;48.766;9.270;2023-05-21T12:42:04;27.30;47.60
802;DHT22;383;48.766;9.270;2023-05-21T12:44:31;27.30;49.20
802;DHT22;383;48.766;9.270;2023-05-21T12:46:58;27.30;48.70
802;DHT22;383;48.766;9.270;2023-05-21T12:49:36;27.50;47.80
802;DHT22;383;48.766;9.270;2023-05-21T12:52:06;27.50;48.10
802;DHT22;383;48.766;9.270;2023-05-21T12:54:34;27.60;47.30
802;DHT22;383;48.766;9.270;2023-05-21T12:57:08;27.60;48.10
802;DHT22;383;48.766;9.270;2023-05-21T12:59:46;27.80;46.70
802;DHT22;383;48.766;9.270;2023-05-21T13:02:14;27.90;47.30
802;DHT22;383;48.766;9.270;2023-05-21T13:04:43;27.90;47.20
802;DHT22;383;48.766;9.270;2023-05-21T13:07:12;27.90;46.70
802;DHT22;383;48.766;9.270;2023-05-21T13:09:49;28.00;47.80
802;DHT22;383;48.766;9.270;2023-05-21T13:12:18;28.10;47.80
802;DHT22;383;48.766;9.270;2023-05-21T13:14:50;28.30;49.20
802;DHT22;383;48.766;9.270;2023-05-21T13:17:17;28.50;46.30
802;DHT22;383;48.766;9.270;2023-05-21T13:20:05;28.50;46.60
802;DHT22;383;48.766;9.270;2023-05-21T13:22:34;28.60;47.80
802;DHT22;383;48.766;9.270;2023-05-21T13:25:04;28.70;47.10
802;DHT22;383;48.766;9.270;2023-05-21T13:27:30;28.70;46.70
802;DHT22;383;48.766;9.270;2023-05-21T13:29:57;28.70;45.90
802;DHT22;383;48.766;9.270;2023-05-21T13:32:24;28.90;45.10
802;DHT22;383;48.766;9.270;2023-05-21T13:34:51;28.90;46.70
802;DHT22;383;48.766;9.270;2023-05-21T13:37:17;29.00;46.30
802;DHT22;383;48.766;9.270;2023-05-21T13:39:46;29.20;46.70
802;DHT22;383;48.766;9.270;2023-05-21T13:42:13;29.20;45.70
802;DHT22;383;48.766;9.270;2023-05-21T13:44:39;29.40;45.50
802;DHT22;383;48.766;9.270;2023-05-21T13:47:06;29.50;44.70
802;DHT22;383;48.766;9.270;2023-05-21T13:49:35;29.80;45.00
802;DHT22;383;48.766;9.270;2023-05-21T13:52:02;29.90;43.70
802;DHT22;383;48.766;9.270;2023-05-21T13:54:29;29.90;45.50
802;DHT22;383;48.766;9.270;2023-05-21T13:56:57;29.90;44.80
802;DHT22;383;48.766;9.270;2023-05-21T13:59:24;30.00;44.00
802;DHT22;383;48.766;9.270;2023-05-21T14:01:51;30.20;42.70
802;DHT22;383;48.766;9.270;2023-05-21T14:04:18;30.30;42.10
802;DHT22;383;48.766;9.270;2023-05-21T14:06:46;30.30;42.80
802;DHT22;383;48.766;9.270;2023-05-21T14:09:13;30.30;44.50
802;DHT22;383;48.766;9.270;2023-05-21T14:11:40;30.20;45.00
802;DHT22;383;48.766;9.270;2023-05-21T14:14:08;30.10;45.80
802;DHT22;383;48.766;9.270;2023-05-21T14:16:35;30.20;44.50
802;DHT22;383;48.766;9.270;2023-05-21T14:19:01;30.20;42.80
802;DHT22;383;48.766;9.270;2023-05-21T14:21:28;30.20;47.30
802;DHT22;383;48.766;9.270;2023-05-21T14:23:56;30.20;43.30
802;DHT22;383;48.766;9.270;2023-05-21T14:26:22;30.20;42.80
802;DHT22;383;48.766;9.270;2023-05-21T14:28:49;30.20;42.80
802;DHT22;383;48.766;9.270;2023-05-21T14:31:17;30.20;42.40
802;DHT22;383;48.766;9.270;2023-05-21T14:33:46;29.90;43.70
802;DHT22;383;48.766;9.270;2023-05-21T14:36:12;29.80;43.60
802;DHT22;383;48.766;9.270;2023-05-21T14:38:39;29.70;43.30
802;DHT22;383;48.766;9.270;2023-05-21T14:41:06;29.40;43.50
802;DHT22;383;48.766;9.270;2023-05-21T14:43:34;29.30;41.00
802;DHT22;383;48.766;9.270;2023-05-21T14:46:00;29.20;41.70
802;DHT22;383;48.766;9.270;2023-05-21T14:48:29;28.60;42.40
802;DHT22;383;48.766;9.270;2023-05-21T14:50:55;28.40;43.00
802;DHT22;383;48.766;9.270;2023-05-21T14:53:22;28.40;43.80
802;DHT22;383;48.766;9.270;2023-05-21T14:55:49;28.50;44.30
802;DHT22;383;48.766;9.270;2023-05-21T14:58:16;28.70;45.10
802;DHT22;383;48.766;9.270;2023-05-21T15:00:43;28.80;44.30
802;DHT22;383;48.766;9.270;2023-05-21T15:03:09;28.90;44.70
802;DHT22;383;48.766;9.270;2023-05-21T15:05:38;29.00;44.50
802;DHT22;383;48.766;9.270;2023-05-21T15:08:05;29.10;44.80
802;DHT22;383;48.766;9.270;2023-05-21T15:10:33;28.90;44.50
802;DHT22;383;48.766;9.270;2023-05-21T15:13:01;28.90;44.20
802;DHT22;383;48.766;9.270;2023-05-21T15:15:30;28.80;45.50
802;DHT22;383;48.766;9.270;2023-05-21T15:17:56;28.80;46.70
802;DHT22;383;48.766;9.270;2023-05-21T15:20:23;28.90;46.40
802;DHT22;383;48.766;9.270;2023-05-21T15:22:53;28.90;46.90
802;DHT22;383;48.766;9.270;2023-05-21T15:25:22;28.90;45.50
802;DHT22;383;48.766;9.270;2023-05-21T15:27:49;29.00;45.90
802;DHT22;383;48.766;9.270;2023-05-21T15:30:16;29.00;44.30
802;DHT22;383;48.766;9.270;2023-05-21T15:32:42;29.00;45.90
802;DHT22;383;48.766;9.270;2023-05-21T15:35:09;29.10;45.70
802;DHT22;383;48.766;9.270;2023-05-21T15:37:36;29.10;44.80
802;DHT22;383;48.766;9.270;2023-05-21T15:40:05;29.30;44.60
802;DHT22;383;48.766;9.270;2023-05-21T15:42:33;29.40;43.80
802;DHT22;383;48.766;9.270;2023-05-21T15:44:59;29.40;40.70
802;DHT22;383;48.766;9.270;2023-05-21T15:47:26;29.40;42.00
802;DHT22;383;48.766;9.270;2023-05-21T15:49:53;29.20;42.50
802;DHT22;383;48.766;9.270;2023-05-21T15:52:19;29.20;43.00
802;DHT22;383;48.766;9.270;2023-05-21T15:54:46;29.10;44.60
802;DHT22;383;48.766;9.270;2023-05-21T15:57:14;29.10;42.60
802;DHT22;383;48.766;9.270;2023-05-21T15:59:41;29.00;43.70
802;DHT22;383;48.766;9.270;2023-05-21T16:02:07;29.00;44.10
802;DHT22;383;48.766;9.270;2023-05-21T16:04:34;28.90;44.30
802;DHT22;383;48.766;9.270;2023-05-21T16:07:01;28.90;42.60
802;DHT22;383;48.766;9.270;2023-05-21T16:09:28;28.80;42.60
802;DHT22;383;48.766;9.270;2023-05-21T16:11:54;28.70;44.20
802;DHT22;383;48.766;9.270;2023-05-21T16:14:23;28.60;45.50
802;DHT22;383;48.766;9.270;2023-05-21T16:16:49;28.60;43.80
802;DHT22;383;48.766;9.270;2023-05-21T16:19:16;28.60;43.60
802;DHT22;383;48.766;9.270;2023-05-21T16:21:43;28.60;43.70
802;DHT22;383;48.766;9.270;2023-05-21T16:24:09;28.60;44.20
802;DHT22;383;48.766;9.270;2023-05-21T16:26:36;28.60;43.30
802;DHT22;383;48.766;9.270;2023-05-21T16:29:03;28.60;44.10
802;DHT22;383;48.766;9.270;2023-05-21T16:31:31;28.60;44.60
802;DHT22;383;48.766;9.270;2023-05-21T16:33:58;28.60;44.30
802;DHT22;383;48.766;9.270;2023-05-21T16:36:25;28.50;45.70
802;DHT22;383;48.766;9.270;2023-05-21T16:38:52;28.50;45.50
802;DHT22;383;48.766;9.270;2023-05-21T16:41:19;28.50;46.40